createdAt,value
2019-05-17T00:02:09.700Z,12.80
2019-05-17T00:04:42.727Z,12.80
2019-05-17T00:07:09.205Z,12.80
2019-05-17T00:09:37.370Z,12.80
2019-05-17T00:12:10.927Z,12.80
2019-05-17T00:14:37.292Z,12.80
2019-05-17T00:17:10.361Z,12.80
2019-05-17T00:19:50.314Z,12.80
2019-05-17T00:22:16.876Z,12.80
2019-05-17T00:24:43.277Z,12.80
2019-05-17T00:27:17.201Z,12.80
2019-05-17T00:29:43.677Z,12.80
2019-05-17T00:32:10.021Z,12.80
2019-05-17T00:34:43.050Z,12.80
2019-05-17T00:37:09.532Z,12.80
2019-05-17T00:39:42.723Z,12.80
2019-05-17T00:42:17.084Z,12.80
2019-05-17T00:44:50.510Z,12.90
2019-05-17T00:47:17.194Z,12.80
2019-05-17T00:49:50.516Z,12.90
2019-05-17T00:52:16.964Z,12.90
2019-05-17T00:54:49.774Z,12.90
2019-05-17T00:57:22.939Z,12.90
2019-05-17T00:59:56.579Z,12.90
2019-05-17T01:02:22.986Z,12.90
2019-05-17T01:04:49.356Z,12.90
2019-05-17T01:07:22.538Z,12.90
2019-05-17T01:09:48.874Z,12.90
2019-05-17T01:12:16.444Z,12.90
2019-05-17T01:14:49.342Z,12.90
2019-05-17T01:17:22.179Z,12.90
2019-05-17T01:19:48.538Z,12.90
2019-05-17T01:22:21.713Z,12.90
2019-05-17T01:24:47.967Z,12.90
2019-05-17T01:27:14.433Z,12.90
2019-05-17T01:29:48.005Z,12.90
2019-05-17T01:32:14.268Z,12.90
2019-05-17T01:34:47.549Z,12.90
2019-05-17T01:37:13.817Z,12.90
2019-05-17T01:39:46.877Z,12.90
2019-05-17T01:42:13.317Z,12.90
2019-05-17T01:44:39.664Z,12.90
2019-05-17T01:47:13.002Z,12.90
2019-05-17T01:49:39.465Z,12.90
2019-05-17T01:52:07.514Z,12.90
2019-05-17T01:54:47.539Z,12.80
2019-05-17T01:57:14.008Z,12.90
2019-05-17T01:59:40.351Z,12.90
2019-05-17T02:02:16.421Z,12.80
2019-05-17T02:04:42.800Z,12.80
2019-05-17T02:07:17.266Z,12.80
2019-05-17T02:09:43.705Z,12.80
2019-05-17T02:12:17.377Z,12.80
2019-05-17T02:14:43.799Z,12.70
2019-05-17T02:17:17.403Z,12.70
2019-05-17T02:19:57.382Z,12.70
2019-05-17T02:22:23.740Z,12.70
2019-05-17T02:24:50.132Z,12.60
2019-05-17T02:27:25.386Z,12.60
2019-05-17T02:29:52.356Z,12.60
2019-05-17T02:32:25.487Z,12.60
2019-05-17T02:34:53.079Z,12.60
2019-05-17T02:37:22.926Z,12.60
2019-05-17T02:40:02.467Z,12.60
2019-05-17T02:42:34.767Z,12.60
2019-05-17T02:45:03.077Z,12.60
2019-05-17T02:47:36.667Z,12.60
2019-05-17T02:50:12.898Z,12.60
2019-05-17T02:52:43.054Z,12.60
2019-05-17T02:55:07.888Z,12.50
2019-05-17T02:57:43.353Z,12.50
2019-05-17T03:00:08.896Z,12.50
2019-05-17T03:02:35.334Z,12.50
2019-05-17T03:05:12.830Z,12.50
2019-05-17T03:07:38.361Z,12.50
2019-05-17T03:10:22.073Z,12.50
2019-05-17T03:12:39.364Z,12.50
2019-05-17T03:15:13.091Z,12.50
2019-05-17T03:17:46.606Z,12.40
2019-05-17T03:20:23.083Z,12.40
2019-05-17T03:22:48.491Z,12.40
2019-05-17T03:25:14.836Z,12.30
2019-05-17T03:27:47.918Z,12.30
2019-05-17T03:30:18.709Z,12.30
2019-05-17T03:32:56.463Z,12.30
2019-05-17T03:35:19.203Z,12.30
2019-05-17T03:37:45.489Z,12.20
2019-05-17T03:40:36.311Z,12.30
2019-05-17T03:42:54.150Z,12.30
2019-05-17T03:45:26.745Z,12.20
2019-05-17T03:47:53.430Z,12.20
2019-05-17T03:50:22.507Z,12.20
2019-05-17T03:52:54.418Z,12.20
2019-05-17T03:55:23.221Z,12.20
2019-05-17T03:57:48.817Z,12.10
2019-05-17T04:00:28.823Z,12.10
2019-05-17T04:02:55.179Z,12.10
2019-05-17T04:05:27.735Z,12.10
2019-05-17T04:07:54.025Z,12.00
2019-05-17T04:10:22.810Z,12.10
2019-05-17T04:12:55.235Z,12.00
2019-05-17T04:15:28.531Z,12.00
2019-05-17T04:18:04.163Z,12.00
2019-05-17T04:20:43.466Z,12.00
2019-05-17T04:23:12.506Z,11.90
2019-05-17T04:25:44.201Z,11.90
2019-05-17T04:28:17.067Z,11.90
2019-05-17T04:30:43.582Z,11.90
2019-05-17T04:33:12.868Z,12.00
2019-05-17T04:35:44.329Z,12.00
2019-05-17T04:38:12.764Z,11.90
2019-05-17T04:40:54.126Z,11.90
2019-05-17T04:43:23.086Z,11.90
2019-05-17T04:45:55.152Z,11.90
2019-05-17T04:48:23.314Z,11.90
2019-05-17T04:50:53.018Z,11.90
2019-05-17T04:53:24.342Z,11.80
2019-05-17T04:55:57.498Z,11.80
2019-05-17T04:58:23.746Z,11.80
2019-05-17T05:00:56.411Z,11.80
2019-05-17T05:03:23.253Z,11.80
2019-05-17T05:05:53.177Z,11.80
2019-05-17T05:08:32.997Z,11.80
2019-05-17T05:10:58.627Z,11.80
2019-05-17T05:13:33.317Z,11.80
2019-05-17T05:15:59.701Z,11.80
2019-05-17T05:18:45.996Z,11.80
2019-05-17T05:21:12.407Z,11.70
2019-05-17T05:23:44.890Z,11.70
2019-05-17T05:26:12.034Z,11.70
2019-05-17T05:28:44.950Z,11.70
2019-05-17T05:31:17.852Z,11.70
2019-05-17T05:33:52.249Z,11.70
2019-05-17T05:36:25.349Z,11.70
2019-05-17T05:38:51.673Z,11.70
2019-05-17T05:41:18.008Z,11.70
2019-05-17T05:43:52.587Z,11.70
2019-05-17T05:46:19.181Z,11.70
2019-05-17T05:48:52.277Z,11.70
2019-05-17T05:51:25.369Z,11.70
2019-05-17T05:53:58.391Z,11.70
2019-05-17T05:56:32.676Z,11.70
2019-05-17T05:58:59.103Z,11.70
2019-05-17T06:01:38.135Z,11.70
2019-05-17T06:04:04.587Z,11.70
2019-05-17T06:06:37.196Z,11.70
2019-05-17T06:09:13.456Z,11.70
2019-05-17T06:11:41.644Z,11.70
2019-05-17T06:14:14.427Z,11.70
2019-05-17T06:16:47.857Z,11.70
2019-05-17T06:19:34.282Z,11.80
2019-05-17T06:22:02.552Z,11.80
2019-05-17T06:24:28.584Z,11.80
2019-05-17T06:27:01.980Z,11.80
2019-05-17T06:29:28.473Z,11.80
2019-05-17T06:32:02.594Z,11.80
2019-05-17T06:34:29.072Z,11.80
2019-05-17T06:37:02.483Z,11.80
2019-05-17T06:39:35.718Z,11.90
2019-05-17T06:42:08.742Z,12.00
2019-05-17T06:44:35.189Z,12.00
2019-05-17T06:47:15.148Z,12.10
2019-05-17T06:49:42.417Z,12.10
2019-05-17T06:52:15.111Z,12.10
2019-05-17T06:54:48.244Z,12.20
2019-05-17T06:57:28.549Z,12.20
2019-05-17T06:59:54.917Z,12.20
2019-05-17T07:02:27.710Z,12.20
2019-05-17T07:04:55.955Z,12.20
2019-05-17T07:07:32.228Z,12.20
2019-05-17T07:10:00.598Z,12.20
2019-05-17T07:12:54.467Z,12.20
2019-05-17T07:15:16.523Z,12.20
2019-05-17T07:17:50.448Z,12.20
2019-05-17T07:20:23.718Z,12.20
2019-05-17T07:22:50.713Z,12.20
2019-05-17T07:25:23.698Z,12.20
2019-05-17T07:27:50.389Z,12.20
2019-05-17T07:30:24.928Z,12.20
2019-05-17T07:33:00.202Z,12.20
2019-05-17T07:35:33.126Z,12.20
2019-05-17T07:37:59.653Z,12.20
2019-05-17T07:40:32.433Z,12.20
2019-05-17T07:43:07.881Z,12.20
2019-05-17T07:45:40.588Z,12.30
2019-05-17T07:48:09.550Z,12.30
2019-05-17T07:50:42.279Z,12.30
2019-05-17T07:53:10.365Z,12.30
2019-05-17T07:55:36.848Z,12.40
2019-05-17T07:58:10.376Z,12.40
2019-05-17T08:00:43.635Z,12.40
2019-05-17T08:03:12.666Z,12.40
2019-05-17T08:05:44.917Z,12.40
2019-05-17T08:08:11.176Z,12.40
2019-05-17T08:10:44.069Z,12.50
2019-05-17T08:13:27.441Z,12.50
2019-05-17T08:15:45.280Z,12.50
2019-05-17T08:18:11.562Z,12.60
2019-05-17T08:20:44.455Z,12.60
2019-05-17T08:23:19.884Z,12.60
2019-05-17T08:25:55.704Z,12.70
2019-05-17T08:28:27.269Z,12.70
2019-05-17T08:30:53.600Z,12.70
2019-05-17T08:33:19.858Z,12.80
2019-05-17T08:35:52.438Z,12.90
2019-05-17T08:38:25.570Z,13.00
2019-05-17T08:40:51.960Z,13.00
2019-05-17T08:43:38.164Z,13.10
2019-05-17T08:45:52.969Z,13.10
2019-05-17T08:48:25.401Z,13.20
2019-05-17T08:51:00.138Z,13.20
2019-05-17T08:53:33.043Z,13.20
2019-05-17T08:56:00.993Z,13.30
2019-05-17T08:58:34.500Z,13.30
2019-05-17T09:01:00.776Z,13.40
2019-05-17T09:03:33.872Z,13.40
2019-05-17T09:06:02.244Z,13.50
2019-05-17T09:08:29.848Z,13.50
2019-05-17T09:11:02.341Z,13.60
2019-05-17T09:13:29.834Z,13.60
2019-05-17T09:16:03.833Z,13.60
2019-05-17T09:18:39.271Z,13.70
2019-05-17T09:21:18.409Z,13.70
2019-05-17T09:23:59.575Z,13.80
2019-05-17T09:26:25.814Z,13.80
2019-05-17T09:29:01.256Z,13.90
2019-05-17T09:31:33.309Z,14.00
2019-05-17T09:34:06.472Z,14.10
2019-05-17T09:36:32.918Z,14.10
2019-05-17T09:39:05.838Z,14.20
2019-05-17T09:41:32.089Z,14.30
2019-05-17T09:44:12.887Z,14.40
2019-05-17T09:46:33.496Z,14.50
2019-05-17T09:49:06.596Z,14.60
2019-05-17T09:51:32.945Z,14.80
2019-05-17T09:54:06.002Z,14.90
2019-05-17T09:56:39.475Z,15.00
2019-05-17T09:59:06.232Z,15.20
2019-05-17T10:01:39.734Z,15.40
2019-05-17T10:04:13.712Z,15.50
2019-05-17T10:06:46.944Z,15.60
2019-05-17T10:09:14.495Z,15.80
2019-05-17T10:11:49.303Z,16.10
2019-05-17T10:14:25.757Z,16.50
2019-05-17T10:16:43.631Z,17.00
2019-05-17T10:19:24.106Z,17.50
2019-05-17T10:21:56.563Z,18.00
2019-05-17T10:24:38.134Z,18.50
2019-05-17T10:26:59.511Z,18.90
2019-05-17T10:29:32.840Z,19.30
2019-05-17T10:31:59.865Z,19.50
2019-05-17T10:34:32.993Z,19.70
2019-05-17T10:37:06.058Z,19.70
2019-05-17T10:39:41.497Z,19.80
2019-05-17T10:42:14.251Z,19.90
2019-05-17T10:44:48.052Z,19.90
2019-05-17T10:47:16.024Z,19.90
2019-05-17T10:49:49.627Z,20.00
2019-05-17T10:52:16.056Z,20.30
2019-05-17T10:54:42.305Z,20.90
2019-05-17T10:57:14.882Z,21.70
2019-05-17T11:00:07.258Z,22.50
2019-05-17T11:02:47.916Z,23.20
2019-05-17T11:05:15.856Z,24.10
2019-05-17T11:07:50.434Z,24.80
2019-05-17T11:10:19.287Z,25.50
2019-05-17T11:12:51.837Z,26.10
2019-05-17T11:15:24.313Z,26.60
2019-05-17T11:17:50.561Z,27.10
2019-05-17T11:20:23.885Z,27.50
2019-05-17T11:22:50.339Z,27.70
2019-05-17T11:25:16.797Z,28.10
2019-05-17T11:27:50.238Z,28.40
2019-05-17T11:30:23.419Z,28.70
2019-05-17T11:32:49.764Z,29.00
2019-05-17T11:35:24.669Z,29.20
2019-05-17T11:37:58.033Z,29.40
2019-05-17T11:43:06.677Z,29.80
2019-05-17T11:45:33.187Z,30.00
2019-05-17T11:48:06.216Z,30.10
2019-05-17T11:50:32.554Z,30.20
2019-05-17T11:52:58.808Z,30.40
2019-05-17T11:55:38.661Z,30.50
2019-05-17T11:58:04.899Z,30.50
2019-05-17T12:00:37.945Z,30.60
2019-05-17T12:03:04.295Z,30.50
2019-05-17T12:05:30.732Z,30.50
2019-05-17T12:08:03.453Z,30.40
2019-05-17T12:10:30.246Z,30.40
2019-05-17T12:13:03.700Z,30.40
2019-05-17T12:15:44.825Z,30.50
2019-05-17T12:18:04.595Z,30.60
2019-05-17T12:20:38.026Z,30.70
2019-05-17T12:23:04.743Z,30.90
2019-05-17T12:25:37.482Z,31.10
2019-05-17T12:28:03.910Z,31.30
2019-05-17T12:30:30.263Z,31.50
2019-05-17T12:33:03.755Z,31.60
2019-05-17T12:35:30.103Z,31.60
2019-05-17T12:37:56.322Z,31.70
2019-05-17T12:40:29.274Z,31.60
2019-05-17T12:43:02.545Z,31.40
2019-05-17T12:45:41.796Z,31.20
2019-05-17T12:48:08.281Z,30.80
2019-05-17T12:50:40.807Z,30.50
2019-05-17T12:53:07.184Z,30.10
2019-05-17T12:55:40.244Z,29.80
2019-05-17T12:58:13.461Z,29.60
2019-05-17T13:00:39.912Z,29.30
2019-05-17T13:03:19.963Z,29.00
2019-05-17T13:05:53.181Z,28.70
2019-05-17T13:08:19.449Z,28.30
2019-05-17T13:10:52.267Z,27.90
2019-05-17T13:13:18.504Z,27.50
2019-05-17T13:15:51.191Z,27.10
2019-05-17T13:18:17.642Z,26.80
2019-05-17T13:20:50.387Z,26.50
2019-05-17T13:23:23.346Z,26.30
2019-05-17T13:25:49.687Z,26.10
2019-05-17T13:28:16.051Z,25.90
2019-05-17T13:30:48.469Z,25.70
2019-05-17T13:33:14.942Z,25.70
2019-05-17T13:35:47.470Z,25.70
2019-05-17T13:38:13.747Z,25.70
2019-05-17T13:40:46.944Z,25.70
2019-05-17T13:43:20.184Z,25.70
2019-05-17T13:45:53.220Z,25.60
2019-05-17T13:48:25.756Z,25.50
2019-05-17T13:50:58.478Z,25.40
2019-05-17T13:53:30.969Z,25.30
2019-05-17T13:56:04.166Z,25.20
2019-05-17T13:58:30.522Z,25.00
2019-05-17T14:01:03.521Z,24.80
2019-05-17T14:03:29.923Z,24.70
2019-05-17T14:06:02.801Z,24.60
2019-05-17T14:08:35.396Z,24.50
2019-05-17T14:11:01.924Z,24.40
2019-05-17T14:13:34.728Z,24.30
2019-05-17T14:16:00.959Z,24.30
2019-05-17T14:18:33.768Z,24.20
2019-05-17T14:21:08.245Z,24.00
2019-05-17T14:23:41.349Z,23.90
2019-05-17T14:26:07.750Z,23.70
2019-05-17T14:28:40.846Z,23.60
2019-05-17T14:31:07.336Z,23.50
2019-05-17T14:33:40.008Z,23.30
2019-05-17T14:36:13.030Z,23.20
2019-05-17T14:38:46.135Z,23.10
2019-05-17T14:41:12.505Z,22.90
2019-05-17T14:43:52.520Z,22.70
2019-05-17T14:46:31.833Z,22.70
2019-05-17T14:49:11.004Z,22.60
2019-05-17T14:51:37.286Z,22.50
2019-05-17T14:54:03.639Z,22.50
2019-05-17T14:56:36.745Z,22.40
2019-05-17T14:59:03.086Z,22.30
2019-05-17T15:01:32.684Z,22.20
2019-05-17T15:04:04.028Z,22.10
2019-05-17T15:06:30.373Z,22.10
2019-05-17T15:08:57.018Z,22.00
2019-05-17T15:11:29.769Z,21.90
2019-05-17T15:14:22.990Z,21.80
2019-05-17T15:16:56.244Z,21.80
2019-05-17T15:19:29.303Z,21.70
2019-05-17T15:22:02.785Z,21.70
2019-05-17T15:24:35.658Z,21.60
2019-05-17T15:27:05.986Z,21.60
2019-05-17T15:29:36.225Z,21.40
2019-05-17T15:32:02.706Z,21.30
2019-05-17T15:34:29.005Z,21.10
2019-05-17T15:37:08.492Z,21.00
2019-05-17T15:39:34.926Z,20.90
2019-05-17T15:42:01.415Z,20.80
2019-05-17T15:44:34.650Z,20.70
2019-05-17T15:47:01.083Z,20.70
2019-05-17T15:49:33.607Z,20.70
2019-05-17T15:51:59.956Z,20.70
2019-05-17T15:54:26.200Z,20.70
2019-05-17T15:56:58.998Z,20.60
2019-05-17T15:59:32.332Z,20.60
2019-05-17T16:01:58.581Z,20.60
2019-05-17T16:04:31.794Z,20.60
2019-05-17T16:07:04.840Z,20.60
2019-05-17T16:09:37.428Z,20.50
2019-05-17T16:12:10.079Z,20.50
2019-05-17T16:14:42.631Z,20.50
2019-05-17T16:17:21.646Z,20.50
2019-05-17T16:19:47.949Z,20.40
2019-05-17T16:22:14.403Z,20.40
2019-05-17T16:24:47.274Z,20.40
2019-05-17T16:27:13.602Z,20.40
2019-05-17T16:29:40.069Z,20.40
2019-05-17T16:32:12.817Z,20.30
2019-05-17T16:34:45.774Z,20.30
2019-05-17T16:37:12.399Z,20.20
2019-05-17T16:39:38.852Z,20.20
2019-05-17T16:42:12.326Z,20.20
2019-05-17T16:44:48.570Z,20.20
2019-05-17T16:47:14.838Z,20.10
2019-05-17T16:49:47.967Z,20.10
2019-05-17T16:52:20.785Z,20.10
2019-05-17T16:54:47.295Z,20.00
2019-05-17T16:57:19.907Z,20.00
2019-05-17T16:59:52.588Z,20.00
2019-05-17T17:02:19.056Z,19.90
2019-05-17T17:04:58.907Z,19.90
2019-05-17T17:07:25.161Z,19.80
2019-05-17T17:10:04.968Z,19.80
2019-05-17T17:12:31.416Z,19.70
2019-05-17T17:15:07.613Z,19.60
2019-05-17T17:17:47.061Z,19.60
2019-05-17T17:20:13.755Z,19.50
2019-05-17T17:22:47.170Z,19.50
2019-05-17T17:25:13.762Z,19.40
2019-05-17T17:27:40.238Z,19.30
2019-05-17T17:30:15.338Z,19.30
2019-05-17T17:32:48.665Z,19.20
2019-05-17T17:35:42.906Z,19.20
2019-05-17T17:38:15.551Z,19.10
2019-05-17T17:40:48.682Z,19.00
2019-05-17T17:43:15.631Z,19.00
2019-05-17T17:45:48.828Z,18.90
2019-05-17T17:48:15.194Z,18.80
2019-05-17T17:50:48.798Z,18.80
2019-05-17T17:53:15.055Z,18.80
2019-05-17T17:55:48.010Z,18.70
2019-05-17T17:58:21.346Z,18.70
2019-05-17T18:00:48.207Z,18.70
2019-05-17T18:03:20.621Z,18.60
2019-05-17T18:05:46.974Z,18.60
2019-05-17T18:08:13.648Z,18.50
2019-05-17T18:10:53.319Z,18.50
2019-05-17T18:13:19.669Z,18.40
2019-05-17T18:15:59.796Z,18.40
2019-05-17T18:18:39.178Z,18.30
2019-05-17T18:21:05.631Z,18.20
2019-05-17T18:23:32.226Z,18.10
2019-05-17T18:26:05.597Z,18.10
2019-05-17T18:28:38.759Z,18.00
2019-05-17T18:31:15.066Z,17.90
2019-05-17T18:33:41.612Z,17.80
2019-05-17T18:36:08.484Z,17.70
2019-05-17T18:38:42.608Z,17.70
2019-05-17T18:41:08.969Z,17.60
2019-05-17T18:43:41.424Z,17.60
2019-05-17T18:46:07.807Z,17.50
2019-05-17T18:48:41.240Z,17.50
2019-05-17T18:51:07.640Z,17.40
2019-05-17T18:53:40.543Z,17.40
2019-05-17T18:56:14.109Z,17.40
2019-05-17T18:58:40.532Z,17.30
2019-05-17T19:01:14.073Z,17.20
2019-05-17T19:03:47.459Z,17.20
2019-05-17T19:06:13.962Z,17.10
2019-05-17T19:08:46.981Z,17.10
2019-05-17T19:11:20.133Z,17.10
2019-05-17T19:13:53.045Z,17.10
2019-05-17T19:16:26.590Z,17.00
2019-05-17T19:19:06.627Z,16.90
2019-05-17T19:21:32.890Z,16.90
2019-05-17T19:24:06.205Z,16.80
2019-05-17T19:26:39.528Z,16.80
2019-05-17T19:29:06.050Z,16.70
2019-05-17T19:31:32.487Z,16.70
2019-05-17T19:34:05.785Z,16.60
2019-05-17T19:36:41.596Z,16.50
2019-05-17T19:39:14.271Z,16.50
2019-05-17T19:41:47.611Z,16.50
2019-05-17T19:44:13.986Z,16.40
2019-05-17T19:46:47.085Z,16.40
2019-05-17T19:49:20.038Z,16.30
2019-05-17T19:51:46.508Z,16.30
2019-05-17T19:54:19.941Z,16.20
2019-05-17T19:56:46.307Z,16.20
2019-05-17T19:59:19.101Z,16.10
2019-05-17T20:01:45.378Z,16.10
2019-05-17T20:04:11.863Z,16.00
2019-05-17T20:06:44.260Z,16.00
2019-05-17T20:09:10.502Z,15.90
2019-05-17T20:11:43.668Z,15.90
2019-05-17T20:14:19.630Z,15.90
2019-05-17T20:16:53.073Z,15.80
2019-05-17T20:19:26.497Z,15.80
2019-05-17T20:21:59.548Z,15.80
2019-05-17T20:24:38.959Z,15.80
2019-05-17T20:27:12.252Z,15.70
2019-05-17T20:29:38.594Z,15.70
2019-05-17T20:32:05.067Z,15.70
2019-05-17T20:34:39.459Z,15.60
2019-05-17T20:37:05.813Z,15.60
2019-05-17T20:39:38.686Z,15.60
2019-05-17T20:42:05.028Z,15.60
2019-05-17T20:44:37.947Z,15.50
2019-05-17T20:47:04.401Z,15.50
2019-05-17T20:49:37.100Z,15.40
2019-05-17T20:52:03.571Z,15.50
2019-05-17T20:54:36.338Z,15.40
2019-05-17T20:57:03.093Z,15.40
2019-05-17T20:59:35.765Z,15.40
2019-05-17T21:02:08.896Z,15.30
2019-05-17T21:04:35.247Z,15.30
2019-05-17T21:07:15.027Z,15.30
2019-05-17T21:09:41.246Z,15.30
2019-05-17T21:12:14.008Z,15.30
2019-05-17T21:14:40.466Z,15.30
2019-05-17T21:17:13.521Z,15.30
2019-05-17T21:19:52.587Z,15.20
2019-05-17T21:22:25.729Z,15.20
2019-05-17T21:24:52.101Z,15.20
2019-05-17T21:27:18.448Z,15.10
2019-05-17T21:29:50.977Z,15.10
2019-05-17T21:32:17.246Z,15.10
2019-05-17T21:34:43.499Z,15.10
2019-05-17T21:37:16.117Z,15.10
2019-05-17T21:39:42.371Z,15.10
2019-05-17T21:42:08.977Z,15.00
2019-05-17T21:44:41.404Z,15.00
2019-05-17T21:47:07.660Z,15.00
2019-05-17T21:49:33.915Z,14.90
2019-05-17T21:52:07.425Z,14.90
2019-05-17T21:54:33.802Z,14.90
2019-05-17T21:57:00.155Z,14.90
2019-05-17T21:59:33.467Z,14.80
2019-05-17T22:02:00.634Z,14.80
2019-05-17T22:04:40.090Z,14.80
2019-05-17T22:07:13.339Z,14.70
2019-05-17T22:09:39.670Z,14.70
2019-05-17T22:12:10.823Z,14.60
2019-05-17T22:14:44.074Z,14.60
2019-05-17T22:17:17.356Z,14.50
2019-05-17T22:19:50.597Z,14.50
2019-05-17T22:22:29.864Z,14.40
2019-05-17T22:24:56.111Z,14.30
2019-05-17T22:27:22.384Z,14.30
2019-05-17T22:29:55.145Z,14.20
2019-05-17T22:32:21.405Z,14.20
2019-05-17T22:34:47.664Z,14.20
2019-05-17T22:37:20.527Z,14.10
2019-05-17T22:39:46.875Z,14.10
2019-05-17T22:42:13.231Z,14.10
2019-05-17T22:44:45.762Z,14.00
2019-05-17T22:47:12.007Z,14.00
2019-05-17T22:49:38.295Z,13.90
2019-05-17T22:52:10.991Z,13.90
2019-05-17T22:54:37.243Z,13.90
2019-05-17T22:57:09.800Z,13.80
2019-05-17T22:59:42.230Z,13.80
2019-05-17T23:02:08.562Z,13.80
2019-05-17T23:04:34.799Z,13.70
2019-05-17T23:07:14.498Z,13.70
2019-05-17T23:09:47.814Z,13.70
2019-05-17T23:12:14.173Z,13.60
2019-05-17T23:14:40.515Z,13.60
2019-05-17T23:17:13.865Z,13.60
2019-05-17T23:19:53.211Z,13.60
2019-05-17T23:22:26.435Z,13.50
2019-05-17T23:24:52.787Z,13.50
2019-05-17T23:27:19.130Z,13.50
2019-05-17T23:29:51.575Z,13.50
2019-05-17T23:32:17.898Z,13.50
2019-05-17T23:34:44.256Z,13.50
2019-05-17T23:37:17.578Z,13.40
2019-05-17T23:39:43.831Z,13.50
2019-05-17T23:42:10.080Z,13.40
2019-05-17T23:44:49.317Z,13.40
2019-05-17T23:47:15.705Z,13.40
2019-05-17T23:49:49.134Z,13.40
2019-05-17T23:52:15.499Z,13.40
2019-05-17T23:54:48.308Z,13.30
2019-05-17T23:57:14.568Z,13.30
2019-05-17T23:59:47.596Z,13.30
